sensor_id;sensor_type;location;lat;lon;timestamp;temperature;humidity
19192;DHT22;9728;48.194;16.346;2023-06-26T00:00:05;30.20;44.90
19192;DHT22;9728;48.194;16.346;2023-06-26T00:05:09;30.20;45.10
19192;DHT22;9728;48.194;16.346;2023-06-26T00:10:12;30.20;45.00
19192;DHT22;9728;48.194;16.346;2023-06-26T00:15:17;30.20;45.00
19192;DHT22;9728;48.194;16.346;2023-06-26T00:20:21;30.20;45.20
19192;DHT22;9728;48.194;16.346;2023-06-26T00:25:25;30.20;45.00
19192;DHT22;9728;48.194;16.346;2023-06-26T00:30:30;30.10;45.00
19192;DHT22;9728;48.194;16.346;2023-06-26T00:35:33;30.10;45.00
19192;DHT22;9728;48.194;16.346;2023-06-26T00:40:38;30.20;45.00
19192;DHT22;9728;48.194;16.346;2023-06-26T00:45:44;30.20;45.00
19192;DHT22;9728;48.194;16.346;2023-06-26T00:50:47;30.20;45.10
19192;DHT22;9728;48.194;16.346;2023-06-26T00:55:51;30.10;45.00
19192;DHT22;9728;48.194;16.346;2023-06-26T01:00:56;30.20;45.00
19192;DHT22;9728;48.194;16.346;2023-06-26T01:06:00;30.10;44.90
19192;DHT22;9728;48.194;16.346;2023-06-26T01:11:07;30.10;44.90
19192;DHT22;9728;48.194;16.346;2023-06-26T01:16:12;30.10;44.90
19192;DHT22;9728;48.194;16.346;2023-06-26T01:21:16;30.10;44.90
19192;DHT22;9728;48.194;16.346;2023-06-26T01:26:23;30.00;44.90
19192;DHT22;9728;48.194;16.346;2023-06-26T01:31:29;30.00;44.90
19192;DHT22;9728;48.194;16.346;2023-06-26T01:36:33;30.00;45.00
19192;DHT22;9728;48.194;16.346;2023-06-26T01:41:41;30.00;45.00
19192;DHT22;9728;48.194;16.346;2023-06-26T01:46:54;29.90;45.00
19192;DHT22;9728;48.194;16.346;2023-06-26T01:52:06;29.90;45.10
19192;DHT22;9728;48.194;16.346;2023-06-26T01:57:12;29.90;45.10
19192;DHT22;9728;48.194;16.346;2023-06-26T02:02:15;29.90;45.10
19192;DHT22;9728;48.194;16.346;2023-06-26T02:07:19;29.90;45.10
19192;DHT22;9728;48.194;16.346;2023-06-26T02:12:24;29.80;45.00
19192;DHT22;9728;48.194;16.346;2023-06-26T02:17:27;29.80;45.80
19192;DHT22;9728;48.194;16.346;2023-06-26T02:22:30;29.80;45.10
19192;DHT22;9728;48.194;16.346;2023-06-26T02:27:35;29.80;45.00
19192;DHT22;9728;48.194;16.346;2023-06-26T02:32:39;29.80;45.10
19192;DHT22;9728;48.194;16.346;2023-06-26T02:37:42;29.80;45.10
19192;DHT22;9728;48.194;16.346;2023-06-26T02:42:48;29.70;45.10
19192;DHT22;9728;48.194;16.346;2023-06-26T02:47:53;29.70;45.10
19192;DHT22;9728;48.194;16.346;2023-06-26T02:52:56;29.70;45.20
19192;DHT22;9728;48.194;16.346;2023-06-26T02:58:01;29.60;45.20
19192;DHT22;9728;48.194;16.346;2023-06-26T03:03:06;29.60;45.20
19192;DHT22;9728;48.194;16.346;2023-06-26T03:08:09;29.60;45.10
19192;DHT22;9728;48.194;16.346;2023-06-26T03:13:15;29.60;45.10
19192;DHT22;9728;48.194;16.346;2023-06-26T03:18:19;29.60;45.30
19192;DHT22;9728;48.194;16.346;2023-06-26T03:23:23;29.60;45.20
19192;DHT22;9728;48.194;16.346;2023-06-26T03:28:28;29.60;45.30
19192;DHT22;9728;48.194;16.346;2023-06-26T03:33:33;29.50;45.30
19192;DHT22;9728;48.194;16.346;2023-06-26T03:38:36;29.50;45.20
19192;DHT22;9728;48.194;16.346;2023-06-26T03:43:42;29.50;45.90
19192;DHT22;9728;48.194;16.346;2023-06-26T03:48:53;29.50;45.30
19192;DHT22;9728;48.194;16.346;2023-06-26T03:53:56;29.50;45.30
19192;DHT22;9728;48.194;16.346;2023-06-26T03:59:04;29.50;45.40
19192;DHT22;9728;48.194;16.346;2023-06-26T04:04:07;29.50;45.40
19192;DHT22;9728;48.194;16.346;2023-06-26T04:09:11;29.50;45.40
19192;DHT22;9728;48.194;16.346;2023-06-26T04:14:15;29.50;45.40
19192;DHT22;9728;48.194;16.346;2023-06-26T04:19:19;29.50;45.50
19192;DHT22;9728;48.194;16.346;2023-06-26T04:24:22;29.50;45.40
19192;DHT22;9728;48.194;16.346;2023-06-26T04:29:27;29.50;45.40
19192;DHT22;9728;48.194;16.346;2023-06-26T04:34:30;29.50;45.40
19192;DHT22;9728;48.194;16.346;2023-06-26T04:39:36;29.50;45.40
19192;DHT22;9728;48.194;16.346;2023-06-26T04:44:41;29.60;45.50
19192;DHT22;9728;48.194;16.346;2023-06-26T04:49:44;29.60;45.50
19192;DHT22;9728;48.194;16.346;2023-06-26T04:54:48;29.60;45.50
19192;DHT22;9728;48.194;16.346;2023-06-26T04:59:53;29.60;45.50
19192;DHT22;9728;48.194;16.346;2023-06-26T05:04:56;29.70;45.60
19192;DHT22;9728;48.194;16.346;2023-06-26T05:10:00;29.80;45.60
19192;DHT22;9728;48.194;16.346;2023-06-26T05:15:05;29.80;45.60
19192;DHT22;9728;48.194;16.346;2023-06-26T05:20:10;29.80;45.70
19192;DHT22;9728;48.194;16.346;2023-06-26T05:25:14;29.80;45.70
19192;DHT22;9728;48.194;16.346;2023-06-26T05:30:21;29.80;45.60
19192;DHT22;9728;48.194;16.346;2023-06-26T05:35:29;29.90;45.60
19192;DHT22;9728;48.194;16.346;2023-06-26T05:40:33;29.90;45.60
19192;DHT22;9728;48.194;16.346;2023-06-26T05:45:39;30.00;45.50
19192;DHT22;9728;48.194;16.346;2023-06-26T05:50:43;30.00;45.40
19192;DHT22;9728;48.194;16.346;2023-06-26T05:55:47;30.00;45.40
19192;DHT22;9728;48.194;16.346;2023-06-26T06:00:52;30.00;45.20
19192;DHT22;9728;48.194;16.346;2023-06-26T06:05:55;30.00;45.30
19192;DHT22;9728;48.194;16.346;2023-06-26T06:10:59;30.00;45.20
19192;DHT22;9728;48.194;16.346;2023-06-26T06:16:04;30.10;45.20
19192;DHT22;9728;48.194;16.346;2023-06-26T06:21:08;30.00;45.10
19192;DHT22;9728;48.194;16.346;2023-06-26T06:26:11;30.10;45.20
19192;DHT22;9728;48.194;16.346;2023-06-26T06:31:16;30.10;45.30
19192;DHT22;9728;48.194;16.346;2023-06-26T06:36:20;30.20;45.30
19192;DHT22;9728;48.194;16.346;2023-06-26T06:41:24;30.20;45.30
19192;DHT22;9728;48.194;16.346;2023-06-26T06:46:29;30.20;45.30
19192;DHT22;9728;48.194;16.346;2023-06-26T06:51:32;30.20;45.30
19192;DHT22;9728;48.194;16.346;2023-06-26T06:56:36;30.30;45.20
19192;DHT22;9728;48.194;16.346;2023-06-26T07:01:40;30.40;45.20
19192;DHT22;9728;48.194;16.346;2023-06-26T07:06:44;30.50;45.00
19192;DHT22;9728;48.194;16.346;2023-06-26T07:11:47;30.60;44.90
19192;DHT22;9728;48.194;16.346;2023-06-26T07:16:52;30.60;44.80
19192;DHT22;9728;48.194;16.346;2023-06-26T07:21:55;30.70;44.60
19192;DHT22;9728;48.194;16.346;2023-06-26T07:26:59;30.80;44.60
19192;DHT22;9728;48.194;16.346;2023-06-26T07:32:05;30.80;44.40
19192;DHT22;9728;48.194;16.346;2023-06-26T07:37:09;30.90;44.40
19192;DHT22;9728;48.194;16.346;2023-06-26T07:42:12;31.00;44.40
19192;DHT22;9728;48.194;16.346;2023-06-26T07:47:17;31.10;44.30
19192;DHT22;9728;48.194;16.346;2023-06-26T07:52:20;31.20;44.10
19192;DHT22;9728;48.194;16.346;2023-06-26T07:57:24;31.30;43.70
19192;DHT22;9728;48.194;16.346;2023-06-26T08:02:28;31.40;43.50
19192;DHT22;9728;48.194;16.346;2023-06-26T08:07:32;31.40;43.10
19192;DHT22;9728;48.194;16.346;2023-06-26T08:12:36;31.50;43.20
19192;DHT22;9728;48.194;16.346;2023-06-26T08:17:43;31.60;43.10
19192;DHT22;9728;48.194;16.346;2023-06-26T08:22:47;31.70;43.00
19192;DHT22;9728;48.194;16.346;2023-06-26T08:27:52;31.80;43.00
19192;DHT22;9728;48.194;16.346;2023-06-26T08:32:57;31.90;42.80
19192;DHT22;9728;48.194;16.346;2023-06-26T08:38:01;31.90;42.70
19192;DHT22;9728;48.194;16.346;2023-06-26T08:43:04;32.00;42.60
19192;DHT22;9728;48.194;16.346;2023-06-26T08:48:09;32.10;42.60
19192;DHT22;9728;48.194;16.346;2023-06-26T08:53:20;32.20;42.60
19192;DHT22;9728;48.194;16.346;2023-06-26T08:58:25;32.40;42.50
19192;DHT22;9728;48.194;16.346;2023-06-26T09:03:30;32.50;42.70
19192;DHT22;9728;48.194;16.346;2023-06-26T09:08:34;32.70;42.60
19192;DHT22;9728;48.194;16.346;2023-06-26T09:13:38;32.80;42.50
19192;DHT22;9728;48.194;16.346;2023-06-26T09:18:45;33.00;42.30
19192;DHT22;9728;48.194;16.346;2023-06-26T09:23:49;33.10;41.70
19192;DHT22;9728;48.194;16.346;2023-06-26T09:28:53;33.30;41.80
19192;DHT22;9728;48.194;16.346;2023-06-26T09:33:59;33.40;41.60
19192;DHT22;9728;48.194;16.346;2023-06-26T09:39:03;33.50;41.20
19192;DHT22;9728;48.194;16.346;2023-06-26T09:44:11;33.70;41.40
19192;DHT22;9728;48.194;16.346;2023-06-26T09:49:17;33.80;41.10
19192;DHT22;9728;48.194;16.346;2023-06-26T09:54:21;34.00;41.00
19192;DHT22;9728;48.194;16.346;2023-06-26T09:59:25;34.10;40.90
19192;DHT22;9728;48.194;16.346;2023-06-26T10:04:30;34.30;40.70
19192;DHT22;9728;48.194;16.346;2023-06-26T10:09:35;34.50;40.50
19192;DHT22;9728;48.194;16.346;2023-06-26T10:14:41;34.60;40.20
19192;DHT22;9728;48.194;16.346;2023-06-26T10:19:50;34.80;40.10
19192;DHT22;9728;48.194;16.346;2023-06-26T10:24:57;35.00;39.90
19192;DHT22;9728;48.194;16.346;2023-06-26T10:30:04;35.20;40.00
19192;DHT22;9728;48.194;16.346;2023-06-26T10:35:10;35.40;39.50
19192;DHT22;9728;48.194;16.346;2023-06-26T10:40:24;35.50;38.90
19192;DHT22;9728;48.194;16.346;2023-06-26T10:45:28;35.70;38.30
19192;DHT22;9728;48.194;16.346;2023-06-26T10:50:33;35.80;38.70
19192;DHT22;9728;48.194;16.346;2023-06-26T10:55:47;36.10;38.20
19192;DHT22;9728;48.194;16.346;2023-06-26T11:00:51;36.10;37.60
19192;DHT22;9728;48.194;16.346;2023-06-26T11:06:12;36.30;38.00
19192;DHT22;9728;48.194;16.346;2023-06-26T11:11:16;36.40;36.80
19192;DHT22;9728;48.194;16.346;2023-06-26T11:16:20;36.50;37.30
19192;DHT22;9728;48.194;16.346;2023-06-26T11:21:25;36.50;37.00
19192;DHT22;9728;48.194;16.346;2023-06-26T11:26:28;36.60;36.90
19192;DHT22;9728;48.194;16.346;2023-06-26T11:31:33;36.80;37.10
19192;DHT22;9728;48.194;16.346;2023-06-26T11:36:39;36.90;36.80
19192;DHT22;9728;48.194;16.346;2023-06-26T11:41:45;37.00;36.30
19192;DHT22;9728;48.194;16.346;2023-06-26T11:46:52;37.20;36.60
19192;DHT22;9728;48.194;16.346;2023-06-26T11:51:58;37.30;36.10
19192;DHT22;9728;48.194;16.346;2023-06-26T11:57:01;37.40;36.00
19192;DHT22;9728;48.194;16.346;2023-06-26T12:02:05;37.50;35.80
19192;DHT22;9728;48.194;16.346;2023-06-26T12:07:12;37.60;35.70
19192;DHT22;9728;48.194;16.346;2023-06-26T12:12:17;37.70;35.10
19192;DHT22;9728;48.194;16.346;2023-06-26T12:17:23;37.70;35.20
19192;DHT22;9728;48.194;16.346;2023-06-26T12:22:35;37.80;34.80
19192;DHT22;9728;48.194;16.346;2023-06-26T12:27:38;37.80;34.30
19192;DHT22;9728;48.194;16.346;2023-06-26T12:32:44;37.80;34.90
19192;DHT22;9728;48.194;16.346;2023-06-26T12:37:50;37.90;34.30
19192;DHT22;9728;48.194;16.346;2023-06-26T12:42:55;37.80;34.50
19192;DHT22;9728;48.194;16.346;2023-06-26T12:48:07;37.80;34.60
19192;DHT22;9728;48.194;16.346;2023-06-26T12:53:12;37.90;34.30
19192;DHT22;9728;48.194;16.346;2023-06-26T12:58:16;37.90;34.70
19192;DHT22;9728;48.194;16.346;2023-06-26T13:03:20;37.90;34.80
19192;DHT22;9728;48.194;16.346;2023-06-26T13:08:25;38.00;34.80
19192;DHT22;9728;48.194;16.346;2023-06-26T13:13:29;38.00;34.50
19192;DHT22;9728;48.194;16.346;2023-06-26T13:18:32;38.20;34.60
19192;DHT22;9728;48.194;16.346;2023-06-26T13:23:37;38.20;34.50
19192;DHT22;9728;48.194;16.346;2023-06-26T13:28:40;38.20;34.60
19192;DHT22;9728;48.194;16.346;2023-06-26T13:33:44;38.20;34.60
19192;DHT22;9728;48.194;16.346;2023-06-26T13:38:49;38.30;34.70
19192;DHT22;9728;48.194;16.346;2023-06-26T13:43:57;38.30;34.40
19192;DHT22;9728;48.194;16.346;2023-06-26T13:49:10;38.40;34.40
19192;DHT22;9728;48.194;16.346;2023-06-26T13:54:15;38.40;34.30
19192;DHT22;9728;48.194;16.346;2023-06-26T13:59:20;38.40;34.10
19192;DHT22;9728;48.194;16.346;2023-06-26T14:04:26;38.40;34.20
19192;DHT22;9728;48.194;16.346;2023-06-26T14:09:31;38.40;34.20
19192;DHT22;9728;48.194;16.346;2023-06-26T14:14:34;38.40;34.20
19192;DHT22;9728;48.194;16.346;2023-06-26T14:19:38;38.40;34.30
19192;DHT22;9728;48.194;16.346;2023-06-26T14:24:44;38.50;34.40
19192;DHT22;9728;48.194;16.346;2023-06-26T14:29:48;38.50;34.20
19192;DHT22;9728;48.194;16.346;2023-06-26T14:34:51;38.60;34.20
19192;DHT22;9728;48.194;16.346;2023-06-26T14:39:56;38.60;34.10
19192;DHT22;9728;48.194;16.346;2023-06-26T14:45:00;38.60;33.90
19192;DHT22;9728;48.194;16.346;2023-06-26T14:50:05;38.60;34.00
19192;DHT22;9728;48.194;16.346;2023-06-26T14:55:10;38.60;34.00
19192;DHT22;9728;48.194;16.346;2023-06-26T15:00:15;38.60;34.00
19192;DHT22;9728;48.194;16.346;2023-06-26T15:05:18;38.60;33.90
19192;DHT22;9728;48.194;16.346;2023-06-26T15:10:24;38.50;33.90
19192;DHT22;9728;48.194;16.346;2023-06-26T15:15:31;38.50;34.00
19192;DHT22;9728;48.194;16.346;2023-06-26T15:20:34;38.40;34.00
19192;DHT22;9728;48.194;16.346;2023-06-26T15:25:39;38.30;34.00
19192;DHT22;9728;48.194;16.346;2023-06-26T15:30:43;38.30;34.00
19192;DHT22;9728;48.194;16.346;2023-06-26T15:35:46;38.20;34.00
19192;DHT22;9728;48.194;16.346;2023-06-26T15:40:52;38.00;34.00
19192;DHT22;9728;48.194;16.346;2023-06-26T15:45:55;37.90;33.90
19192;DHT22;9728;48.194;16.346;2023-06-26T15:50:59;37.80;34.70
19192;DHT22;9728;48.194;16.346;2023-06-26T15:56:06;37.80;34.30
19192;DHT22;9728;48.194;16.346;2023-06-26T16:01:10;37.60;34.90
19192;DHT22;9728;48.194;16.346;2023-06-26T16:06:14;37.50;34.40
19192;DHT22;9728;48.194;16.346;2023-06-26T16:11:18;37.40;34.50
19192;DHT22;9728;48.194;16.346;2023-06-26T16:16:22;37.30;34.50
19192;DHT22;9728;48.194;16.346;2023-06-26T16:21:25;37.10;34.80
19192;DHT22;9728;48.194;16.346;2023-06-26T16:26:31;37.00;34.80
19192;DHT22;9728;48.194;16.346;2023-06-26T16:31:34;36.80;34.90
19192;DHT22;9728;48.194;16.346;2023-06-26T16:36:38;36.80;35.90
19192;DHT22;9728;48.194;16.346;2023-06-26T16:41:42;36.60;35.10
19192;DHT22;9728;48.194;16.346;2023-06-26T16:46:46;36.50;35.00
19192;DHT22;9728;48.194;16.346;2023-06-26T16:51:49;36.40;35.40
19192;DHT22;9728;48.194;16.346;2023-06-26T16:56:56;36.30;35.40
19192;DHT22;9728;48.194;16.346;2023-06-26T17:02:01;36.10;35.80
19192;DHT22;9728;48.194;16.346;2023-06-26T17:07:05;36.10;35.80
19192;DHT22;9728;48.194;16.346;2023-06-26T17:12:13;36.00;35.90
19192;DHT22;9728;48.194;16.346;2023-06-26T17:17:16;35.90;35.70
19192;DHT22;9728;48.194;16.346;2023-06-26T17:22:20;35.80;35.80
19192;DHT22;9728;48.194;16.346;2023-06-26T17:27:26;35.60;35.70
19192;DHT22;9728;48.194;16.346;2023-06-26T17:32:30;35.50;35.80
19192;DHT22;9728;48.194;16.346;2023-06-26T17:37:34;35.50;35.90
19192;DHT22;9728;48.194;16.346;2023-06-26T17:42:39;35.40;36.00
19192;DHT22;9728;48.194;16.346;2023-06-26T17:47:45;35.30;36.10
19192;DHT22;9728;48.194;16.346;2023-06-26T17:52:48;35.20;36.10
19192;DHT22;9728;48.194;16.346;2023-06-26T17:57:53;35.10;36.10
19192;DHT22;9728;48.194;16.346;2023-06-26T18:02:57;35.10;36.20
19192;DHT22;9728;48.194;16.346;2023-06-26T18:08:01;35.00;36.30
19192;DHT22;9728;48.194;16.346;2023-06-26T18:13:07;34.90;36.50
19192;DHT22;9728;48.194;16.346;2023-06-26T18:18:11;34.80;36.80
19192;DHT22;9728;48.194;16.346;2023-06-26T18:23:14;34.70;36.70
19192;DHT22;9728;48.194;16.346;2023-06-26T18:28:20;34.70;36.80
19192;DHT22;9728;48.194;16.346;2023-06-26T18:33:24;34.60;37.40
19192;DHT22;9728;48.194;16.346;2023-06-26T18:38:30;34.50;37.80
19192;DHT22;9728;48.194;16.346;2023-06-26T18:43:36;34.50;38.00
19192;DHT22;9728;48.194;16.346;2023-06-26T18:48:39;34.40;37.80
19192;DHT22;9728;48.194;16.346;2023-06-26T18:53:43;34.30;37.90
19192;DHT22;9728;48.194;16.346;2023-06-26T18:58:49;34.20;38.00
19192;DHT22;9728;48.194;16.346;2023-06-26T19:03:54;34.10;38.30
19192;DHT22;9728;48.194;16.346;2023-06-26T19:08:58;34.10;38.50
19192;DHT22;9728;48.194;16.346;2023-06-26T19:14:02;33.90;38.50
19192;DHT22;9728;48.194;16.346;2023-06-26T19:19:06;33.90;38.80
19192;DHT22;9728;48.194;16.346;2023-06-26T19:24:10;33.80;38.80
19192;DHT22;9728;48.194;16.346;2023-06-26T19:29:15;33.70;39.10
19192;DHT22;9728;48.194;16.346;2023-06-26T19:34:19;33.60;39.30
19192;DHT22;9728;48.194;16.346;2023-06-26T19:39:23;33.50;39.30
19192;DHT22;9728;48.194;16.346;2023-06-26T19:44:28;33.50;39.40
19192;DHT22;9728;48.194;16.346;2023-06-26T19:49:32;33.40;39.60
19192;DHT22;9728;48.194;16.346;2023-06-26T19:54:37;33.30;39.50
19192;DHT22;9728;48.194;16.346;2023-06-26T19:59:43;33.20;39.80
19192;DHT22;9728;48.194;16.346;2023-06-26T20:04:46;33.10;40.30
19192;DHT22;9728;48.194;16.346;2023-06-26T20:09:50;33.00;40.30
19192;DHT22;9728;48.194;16.346;2023-06-26T20:14:58;33.00;41.00
19192;DHT22;9728;48.194;16.346;2023-06-26T20:20:01;32.90;41.30
19192;DHT22;9728;48.194;16.346;2023-06-26T20:25:06;32.90;41.30
19192;DHT22;9728;48.194;16.346;2023-06-26T20:30:12;32.80;41.40
19192;DHT22;9728;48.194;16.346;2023-06-26T20:35:15;32.70;41.40
19192;DHT22;9728;48.194;16.346;2023-06-26T20:40:20;32.70;41.70
19192;DHT22;9728;48.194;16.346;2023-06-26T20:45:25;32.70;41.90
19192;DHT22;9728;48.194;16.346;2023-06-26T20:50:29;32.70;42.00
19192;DHT22;9728;48.194;16.346;2023-06-26T20:55:34;32.70;42.40
19192;DHT22;9728;48.194;16.346;2023-06-26T21:00:38;32.60;42.50
19192;DHT22;9728;48.194;16.346;2023-06-26T21:05:42;32.60;42.90
19192;DHT22;9728;48.194;16.346;2023-06-26T21:10:45;32.60;42.60
19192;DHT22;9728;48.194;16.346;2023-06-26T21:15:50;32.60;42.90
19192;DHT22;9728;48.194;16.346;2023-06-26T21:20:53;32.50;43.00
19192;DHT22;9728;48.194;16.346;2023-06-26T21:25:57;32.50;42.90
19192;DHT22;9728;48.194;16.346;2023-06-26T21:31:02;32.60;43.10
19192;DHT22;9728;48.194;16.346;2023-06-26T21:36:05;32.60;43.10
19192;DHT22;9728;48.194;16.346;2023-06-26T21:41:09;32.60;42.90
19192;DHT22;9728;48.194;16.346;2023-06-26T21:46:14;32.50;42.60
19192;DHT22;9728;48.194;16.346;2023-06-26T21:51:18;32.50;42.50
19192;DHT22;9728;48.194;16.346;2023-06-26T21:56:21;32.40;43.20
19192;DHT22;9728;48.194;16.346;2023-06-26T22:01:26;32.30;42.70
19192;DHT22;9728;48.194;16.346;2023-06-26T22:06:30;32.30;43.10
19192;DHT22;9728;48.194;16.346;2023-06-26T22:11:35;32.20;43.20
19192;DHT22;9728;48.194;16.346;2023-06-26T22:16:40;32.20;43.20
19192;DHT22;9728;48.194;16.346;2023-06-26T22:21:44;32.10;43.50
19192;DHT22;9728;48.194;16.346;2023-06-26T22:26:47;32.10;43.40
19192;DHT22;9728;48.194;16.346;2023-06-26T22:31:52;32.10;43.60
19192;DHT22;9728;48.194;16.346;2023-06-26T22:36:55;32.10;43.80
19192;DHT22;9728;48.194;16.346;2023-06-26T22:41:59;32.00;43.70
19192;DHT22;9728;48.194;16.346;2023-06-26T22:47:04;32.00;43.80
19192;DHT22;9728;48.194;16.346;2023-06-26T22:52:08;32.00;44.10
19192;DHT22;9728;48.194;16.346;2023-06-26T22:57:12;31.90;43.90
19192;DHT22;9728;48.194;16.346;2023-06-26T23:02:17;31.90;44.00
19192;DHT22;9728;48.194;16.346;2023-06-26T23:07:21;31.90;44.30
19192;DHT22;9728;48.194;16.346;2023-06-26T23:12:25;31.80;44.20
19192;DHT22;9728;48.194;16.346;2023-06-26T23:17:30;31.80;44.40
19192;DHT22;9728;48.194;16.346;2023-06-26T23:22:34;31.70;44.50
19192;DHT22;9728;48.194;16.346;2023-06-26T23:27:38;31.80;44.60
19192;DHT22;9728;48.194;16.346;2023-06-26T23:32:45;31.70;44.60
19192;DHT22;9728;48.194;16.346;2023-06-26T23:37:49;31.70;44.80
19192;DHT22;9728;48.194;16.346;2023-06-26T23:42:56;31.70;44.70
19192;DHT22;9728;48.194;16.346;2023-06-26T23:48:07;31.70;44.70
19192;DHT22;9728;48.194;16.346;2023-06-26T23:53:10;31.70;44.90
19192;DHT22;9728;48.194;16.346;2023-06-26T23:58:13;31.60;44.70
